sensor_id;sensor_type;location;lat;lon;timestamp;temperature;humidity
5278;DHT22;2662;51.194;6.614;2023-06-14T00:00:34;20.50;73.80
5278;DHT22;2662;51.194;6.614;2023-06-14T00:03:01;20.40;74.00
5278;DHT22;2662;51.194;6.614;2023-06-14T00:05:29;20.40;74.90
5278;DHT22;2662;51.194;6.614;2023-06-14T00:07:59;20.30;75.80
5278;DHT22;2662;51.194;6.614;2023-06-14T00:10:27;20.20;76.70
5278;DHT22;2662;51.194;6.614;2023-06-14T00:12:56;20.20;77.80
5278;DHT22;2662;51.194;6.614;2023-06-14T00:15:24;20.10;78.90
5278;DHT22;2662;51.194;6.614;2023-06-14T00:17:51;20.10;79.30
5278;DHT22;2662;51.194;6.614;2023-06-14T00:20:18;20.00;79.60
5278;DHT22;2662;51.194;6.614;2023-06-14T00:22:44;20.00;80.80
5278;DHT22;2662;51.194;6.614;2023-06-14T00:25:11;20.00;81.30
5278;DHT22;2662;51.194;6.614;2023-06-14T00:27:39;20.00;82.50
5278;DHT22;2662;51.194;6.614;2023-06-14T00:30:07;19.90;82.90
5278;DHT22;2662;51.194;6.614;2023-06-14T00:32:34;19.80;83.80
5278;DHT22;2662;51.194;6.614;2023-06-14T00:35:01;19.70;84.50
5278;DHT22;2662;51.194;6.614;2023-06-14T00:37:28;19.60;84.80
5278;DHT22;2662;51.194;6.614;2023-06-14T00:39:54;19.60;85.30
5278;DHT22;2662;51.194;6.614;2023-06-14T00:42:24;19.60;86.30
5278;DHT22;2662;51.194;6.614;2023-06-14T00:44:53;19.60;86.60
5278;DHT22;2662;51.194;6.614;2023-06-14T00:47:20;19.50;87.00
5278;DHT22;2662;51.194;6.614;2023-06-14T00:49:47;19.50;87.80
5278;DHT22;2662;51.194;6.614;2023-06-14T00:52:15;19.50;88.00
5278;DHT22;2662;51.194;6.614;2023-06-14T00:54:42;19.50;87.80
5278;DHT22;2662;51.194;6.614;2023-06-14T00:57:09;19.50;89.00
5278;DHT22;2662;51.194;6.614;2023-06-14T00:59:40;19.50;89.20
5278;DHT22;2662;51.194;6.614;2023-06-14T01:02:09;19.50;88.60
5278;DHT22;2662;51.194;6.614;2023-06-14T01:04:36;19.50;89.20
5278;DHT22;2662;51.194;6.614;2023-06-14T01:07:10;19.40;90.00
5278;DHT22;2662;51.194;6.614;2023-06-14T01:09:48;19.50;90.10
5278;DHT22;2662;51.194;6.614;2023-06-14T01:12:24;19.40;91.60
5278;DHT22;2662;51.194;6.614;2023-06-14T01:14:55;19.40;92.20
5278;DHT22;2662;51.194;6.614;2023-06-14T01:17:24;19.30;92.00
5278;DHT22;2662;51.194;6.614;2023-06-14T01:19:52;19.30;92.10
5278;DHT22;2662;51.194;6.614;2023-06-14T01:22:24;19.20;92.50
5278;DHT22;2662;51.194;6.614;2023-06-14T01:24:52;19.20;93.40
5278;DHT22;2662;51.194;6.614;2023-06-14T01:27:22;19.20;93.20
5278;DHT22;2662;51.194;6.614;2023-06-14T01:29:50;19.10;93.80
5278;DHT22;2662;51.194;6.614;2023-06-14T01:32:17;19.00;94.40
5278;DHT22;2662;51.194;6.614;2023-06-14T01:34:45;18.90;95.00
5278;DHT22;2662;51.194;6.614;2023-06-14T01:37:12;18.90;95.90
5278;DHT22;2662;51.194;6.614;2023-06-14T01:39:41;18.80;96.30
5278;DHT22;2662;51.194;6.614;2023-06-14T01:42:10;18.80;96.70
5278;DHT22;2662;51.194;6.614;2023-06-14T01:44:37;18.70;97.30
5278;DHT22;2662;51.194;6.614;2023-06-14T01:47:05;18.70;97.90
5278;DHT22;2662;51.194;6.614;2023-06-14T01:49:33;18.60;98.30
5278;DHT22;2662;51.194;6.614;2023-06-14T01:52:00;18.60;99.20
5278;DHT22;2662;51.194;6.614;2023-06-14T01:54:27;18.50;99.90
5278;DHT22;2662;51.194;6.614;2023-06-14T01:56:54;18.40;99.90
5278;DHT22;2662;51.194;6.614;2023-06-14T01:59:23;18.40;99.90
5278;DHT22;2662;51.194;6.614;2023-06-14T02:01:49;18.30;99.90
5278;DHT22;2662;51.194;6.614;2023-06-14T02:04:16;18.30;99.90
5278;DHT22;2662;51.194;6.614;2023-06-14T02:06:43;18.30;99.90
5278;DHT22;2662;51.194;6.614;2023-06-14T02:09:10;18.30;99.90
5278;DHT22;2662;51.194;6.614;2023-06-14T02:11:37;18.20;99.90
5278;DHT22;2662;51.194;6.614;2023-06-14T02:14:03;18.20;99.90
5278;DHT22;2662;51.194;6.614;2023-06-14T02:16:33;18.10;99.90
5278;DHT22;2662;51.194;6.614;2023-06-14T02:19:01;18.10;99.90
5278;DHT22;2662;51.194;6.614;2023-06-14T02:21:28;18.00;99.90
5278;DHT22;2662;51.194;6.614;2023-06-14T02:23:54;18.00;99.90
5278;DHT22;2662;51.194;6.614;2023-06-14T02:26:21;18.00;99.90
5278;DHT22;2662;51.194;6.614;2023-06-14T02:28:48;18.00;99.90
5278;DHT22;2662;51.194;6.614;2023-06-14T02:31:15;17.90;99.90
5278;DHT22;2662;51.194;6.614;2023-06-14T02:33:44;17.90;99.90
5278;DHT22;2662;51.194;6.614;2023-06-14T02:36:10;17.90;99.90
5278;DHT22;2662;51.194;6.614;2023-06-14T02:38:37;17.90;99.90
5278;DHT22;2662;51.194;6.614;2023-06-14T02:41:04;17.90;99.90
5278;DHT22;2662;51.194;6.614;2023-06-14T02:43:31;17.90;99.90
5278;DHT22;2662;51.194;6.614;2023-06-14T02:45:58;17.90;99.90
5278;DHT22;2662;51.194;6.614;2023-06-14T02:48:24;17.90;99.90
5278;DHT22;2662;51.194;6.614;2023-06-14T02:50:52;17.90;99.90
5278;DHT22;2662;51.194;6.614;2023-06-14T02:53:19;17.80;99.90
5278;DHT22;2662;51.194;6.614;2023-06-14T02:55:46;17.80;99.90
5278;DHT22;2662;51.194;6.614;2023-06-14T02:58:13;17.80;99.90
5278;DHT22;2662;51.194;6.614;2023-06-14T03:00:41;17.80;99.90
5278;DHT22;2662;51.194;6.614;2023-06-14T03:03:08;17.70;99.90
5278;DHT22;2662;51.194;6.614;2023-06-14T03:05:40;17.70;99.90
5278;DHT22;2662;51.194;6.614;2023-06-14T03:08:13;17.70;99.90
5278;DHT22;2662;51.194;6.614;2023-06-14T03:10:42;17.60;99.90
5278;DHT22;2662;51.194;6.614;2023-06-14T03:13:09;17.60;99.90
5278;DHT22;2662;51.194;6.614;2023-06-14T03:15:37;17.60;99.90
5278;DHT22;2662;51.194;6.614;2023-06-14T03:18:07;17.60;99.90
5278;DHT22;2662;51.194;6.614;2023-06-14T03:20:33;17.60;99.90
5278;DHT22;2662;51.194;6.614;2023-06-14T03:23:01;17.50;99.90
5278;DHT22;2662;51.194;6.614;2023-06-14T03:25:30;17.50;99.90
5278;DHT22;2662;51.194;6.614;2023-06-14T03:27:56;17.50;99.90
5278;DHT22;2662;51.194;6.614;2023-06-14T03:30:23;17.50;99.90
5278;DHT22;2662;51.194;6.614;2023-06-14T03:32:50;17.50;99.90
5278;DHT22;2662;51.194;6.614;2023-06-14T03:35:17;17.40;99.90
5278;DHT22;2662;51.194;6.614;2023-06-14T03:37:44;17.40;99.90
5278;DHT22;2662;51.194;6.614;2023-06-14T03:40:12;17.40;99.90
5278;DHT22;2662;51.194;6.614;2023-06-14T03:42:40;17.30;99.90
5278;DHT22;2662;51.194;6.614;2023-06-14T03:45:08;17.20;99.90
5278;DHT22;2662;51.194;6.614;2023-06-14T03:47:35;17.10;99.90
5278;DHT22;2662;51.194;6.614;2023-06-14T03:50:02;17.10;99.90
5278;DHT22;2662;51.194;6.614;2023-06-14T03:52:29;17.00;99.90
5278;DHT22;2662;51.194;6.614;2023-06-14T03:54:56;17.00;99.90
5278;DHT22;2662;51.194;6.614;2023-06-14T03:57:25;17.10;99.90
5278;DHT22;2662;51.194;6.614;2023-06-14T03:59:53;17.10;99.90
5278;DHT22;2662;51.194;6.614;2023-06-14T04:02:20;17.10;99.90
5278;DHT22;2662;51.194;6.614;2023-06-14T04:04:48;17.10;99.90
5278;DHT22;2662;51.194;6.614;2023-06-14T04:07:15;17.10;99.90
5278;DHT22;2662;51.194;6.614;2023-06-14T04:09:45;17.20;99.90
5278;DHT22;2662;51.194;6.614;2023-06-14T04:12:11;17.30;99.90
5278;DHT22;2662;51.194;6.614;2023-06-14T04:14:39;17.30;99.90
5278;DHT22;2662;51.194;6.614;2023-06-14T04:17:07;17.40;99.90
5278;DHT22;2662;51.194;6.614;2023-06-14T04:19:34;17.30;99.90
5278;DHT22;2662;51.194;6.614;2023-06-14T04:22:01;17.30;99.90
5278;DHT22;2662;51.194;6.614;2023-06-14T04:24:28;17.30;99.90
5278;DHT22;2662;51.194;6.614;2023-06-14T04:26:58;17.30;99.90
5278;DHT22;2662;51.194;6.614;2023-06-14T04:29:26;17.40;99.90
5278;DHT22;2662;51.194;6.614;2023-06-14T04:31:55;17.40;99.90
5278;DHT22;2662;51.194;6.614;2023-06-14T04:34:25;17.50;99.90
5278;DHT22;2662;51.194;6.614;2023-06-14T04:36:55;17.60;99.90
5278;DHT22;2662;51.194;6.614;2023-06-14T04:39:24;17.60;99.90
5278;DHT22;2662;51.194;6.614;2023-06-14T04:41:51;17.70;99.90
5278;DHT22;2662;51.194;6.614;2023-06-14T04:44:23;17.70;99.90
5278;DHT22;2662;51.194;6.614;2023-06-14T04:46:56;17.80;99.90
5278;DHT22;2662;51.194;6.614;2023-06-14T04:49:25;17.80;99.90
5278;DHT22;2662;51.194;6.614;2023-06-14T04:51:53;17.90;99.90
5278;DHT22;2662;51.194;6.614;2023-06-14T04:54:23;17.90;99.90
5278;DHT22;2662;51.194;6.614;2023-06-14T04:56:51;18.00;99.90
5278;DHT22;2662;51.194;6.614;2023-06-14T04:59:18;18.10;99.90
5278;DHT22;2662;51.194;6.614;2023-06-14T05:01:45;18.00;99.90
5278;DHT22;2662;51.194;6.614;2023-06-14T05:04:13;18.10;99.90
5278;DHT22;2662;51.194;6.614;2023-06-14T05:06:41;18.10;99.90
5278;DHT22;2662;51.194;6.614;2023-06-14T05:09:10;18.20;99.90
5278;DHT22;2662;51.194;6.614;2023-06-14T05:11:37;18.20;99.90
5278;DHT22;2662;51.194;6.614;2023-06-14T05:14:03;18.30;99.90
5278;DHT22;2662;51.194;6.614;2023-06-14T05:16:31;18.10;99.90
5278;DHT22;2662;51.194;6.614;2023-06-14T05:18:58;18.20;99.90
5278;DHT22;2662;51.194;6.614;2023-06-14T05:21:24;18.20;99.90
5278;DHT22;2662;51.194;6.614;2023-06-14T05:23:53;18.30;99.90
5278;DHT22;2662;51.194;6.614;2023-06-14T05:26:19;18.50;99.90
5278;DHT22;2662;51.194;6.614;2023-06-14T05:28:46;18.70;99.90
5278;DHT22;2662;51.194;6.614;2023-06-14T05:31:13;19.10;99.90
5278;DHT22;2662;51.194;6.614;2023-06-14T05:33:39;20.60;99.90
5278;DHT22;2662;51.194;6.614;2023-06-14T05:36:06;22.20;99.90
5278;DHT22;2662;51.194;6.614;2023-06-14T05:38:33;23.00;99.40
5278;DHT22;2662;51.194;6.614;2023-06-14T05:41:01;24.50;97.70
5278;DHT22;2662;51.194;6.614;2023-06-14T05:43:28;25.90;94.10
5278;DHT22;2662;51.194;6.614;2023-06-14T05:45:55;26.90;90.90
5278;DHT22;2662;51.194;6.614;2023-06-14T05:48:21;28.00;88.20
5278;DHT22;2662;51.194;6.614;2023-06-14T05:50:48;29.40;81.00
5278;DHT22;2662;51.194;6.614;2023-06-14T05:53:15;29.70;77.10
5278;DHT22;2662;51.194;6.614;2023-06-14T05:55:41;29.40;75.10
5278;DHT22;2662;51.194;6.614;2023-06-14T05:58:10;30.60;72.90
5278;DHT22;2662;51.194;6.614;2023-06-14T06:00:39;31.30;69.00
5278;DHT22;2662;51.194;6.614;2023-06-14T06:03:05;31.60;67.80
5278;DHT22;2662;51.194;6.614;2023-06-14T06:05:34;32.40;66.40
5278;DHT22;2662;51.194;6.614;2023-06-14T06:08:01;32.60;59.80
5278;DHT22;2662;51.194;6.614;2023-06-14T06:10:28;31.80;59.60
5278;DHT22;2662;51.194;6.614;2023-06-14T06:12:54;31.80;58.80
5278;DHT22;2662;51.194;6.614;2023-06-14T06:15:22;32.00;58.40
5278;DHT22;2662;51.194;6.614;2023-06-14T06:17:49;31.90;57.30
5278;DHT22;2662;51.194;6.614;2023-06-14T06:20:16;31.40;58.20
5278;DHT22;2662;51.194;6.614;2023-06-14T06:22:43;32.60;58.30
5278;DHT22;2662;51.194;6.614;2023-06-14T06:25:10;32.80;55.80
5278;DHT22;2662;51.194;6.614;2023-06-14T06:27:37;33.70;55.40
5278;DHT22;2662;51.194;6.614;2023-06-14T06:30:06;33.90;54.10
5278;DHT22;2662;51.194;6.614;2023-06-14T06:32:35;34.70;53.60
5278;DHT22;2662;51.194;6.614;2023-06-14T06:35:01;35.80;53.20
5278;DHT22;2662;51.194;6.614;2023-06-14T06:37:31;36.10;51.30
5278;DHT22;2662;51.194;6.614;2023-06-14T06:39:58;36.70;50.10
5278;DHT22;2662;51.194;6.614;2023-06-14T06:42:25;36.30;48.80
5278;DHT22;2662;51.194;6.614;2023-06-14T06:44:51;36.10;48.50
5278;DHT22;2662;51.194;6.614;2023-06-14T06:47:18;34.70;47.40
5278;DHT22;2662;51.194;6.614;2023-06-14T06:49:46;32.90;48.00
5278;DHT22;2662;51.194;6.614;2023-06-14T06:52:13;31.50;49.20
5278;DHT22;2662;51.194;6.614;2023-06-14T06:54:40;30.50;50.00
5278;DHT22;2662;51.194;6.614;2023-06-14T06:57:07;30.40;50.80
5278;DHT22;2662;51.194;6.614;2023-06-14T06:59:33;31.80;52.60
5278;DHT22;2662;51.194;6.614;2023-06-14T07:02:00;32.60;49.90
5278;DHT22;2662;51.194;6.614;2023-06-14T07:04:27;33.30;50.20
5278;DHT22;2662;51.194;6.614;2023-06-14T07:06:55;34.20;48.50
5278;DHT22;2662;51.194;6.614;2023-06-14T07:09:22;32.80;48.20
5278;DHT22;2662;51.194;6.614;2023-06-14T07:11:50;33.60;47.70
5278;DHT22;2662;51.194;6.614;2023-06-14T07:14:17;33.20;48.70
5278;DHT22;2662;51.194;6.614;2023-06-14T07:16:44;33.40;48.90
5278;DHT22;2662;51.194;6.614;2023-06-14T07:19:12;34.40;47.80
5278;DHT22;2662;51.194;6.614;2023-06-14T07:21:38;34.50;46.00
5278;DHT22;2662;51.194;6.614;2023-06-14T07:24:07;33.90;45.80
5278;DHT22;2662;51.194;6.614;2023-06-14T07:26:34;34.00;46.40
5278;DHT22;2662;51.194;6.614;2023-06-14T07:29:02;34.00;44.90
5278;DHT22;2662;51.194;6.614;2023-06-14T07:31:29;33.80;44.90
5278;DHT22;2662;51.194;6.614;2023-06-14T07:33:55;34.10;44.80
5278;DHT22;2662;51.194;6.614;2023-06-14T07:36:22;35.10;45.00
5278;DHT22;2662;51.194;6.614;2023-06-14T07:38:49;35.90;44.30
5278;DHT22;2662;51.194;6.614;2023-06-14T07:41:17;36.30;43.80
5278;DHT22;2662;51.194;6.614;2023-06-14T07:43:44;37.10;42.90
5278;DHT22;2662;51.194;6.614;2023-06-14T07:46:11;37.10;42.00
5278;DHT22;2662;51.194;6.614;2023-06-14T07:48:37;35.30;43.10
5278;DHT22;2662;51.194;6.614;2023-06-14T07:51:04;35.90;42.30
5278;DHT22;2662;51.194;6.614;2023-06-14T07:53:31;36.40;41.70
5278;DHT22;2662;51.194;6.614;2023-06-14T07:55:58;36.00;40.50
5278;DHT22;2662;51.194;6.614;2023-06-14T07:58:26;35.20;41.60
5278;DHT22;2662;51.194;6.614;2023-06-14T08:00:53;34.50;42.00
5278;DHT22;2662;51.194;6.614;2023-06-14T08:03:20;33.40;41.50
5278;DHT22;2662;51.194;6.614;2023-06-14T08:05:47;32.20;42.20
5278;DHT22;2662;51.194;6.614;2023-06-14T08:08:14;32.00;43.20
5278;DHT22;2662;51.194;6.614;2023-06-14T08:10:41;32.40;42.80
5278;DHT22;2662;51.194;6.614;2023-06-14T08:13:08;32.50;40.80
5278;DHT22;2662;51.194;6.614;2023-06-14T08:15:37;31.80;40.20
5278;DHT22;2662;51.194;6.614;2023-06-14T08:18:03;31.80;39.40
5278;DHT22;2662;51.194;6.614;2023-06-14T08:20:30;32.00;40.10
5278;DHT22;2662;51.194;6.614;2023-06-14T08:22:57;31.10;38.30
5278;DHT22;2662;51.194;6.614;2023-06-14T08:25:24;30.40;40.20
5278;DHT22;2662;51.194;6.614;2023-06-14T08:27:51;31.50;41.30
5278;DHT22;2662;51.194;6.614;2023-06-14T08:30:18;32.10;41.00
5278;DHT22;2662;51.194;6.614;2023-06-14T08:32:46;31.90;40.20
5278;DHT22;2662;51.194;6.614;2023-06-14T08:35:12;31.40;39.90
5278;DHT22;2662;51.194;6.614;2023-06-14T08:37:39;31.50;40.20
5278;DHT22;2662;51.194;6.614;2023-06-14T08:40:17;32.60;41.00
5278;DHT22;2662;51.194;6.614;2023-06-14T08:42:45;33.40;41.70
5278;DHT22;2662;51.194;6.614;2023-06-14T08:45:12;32.60;39.90
5278;DHT22;2662;51.194;6.614;2023-06-14T08:47:39;31.70;40.40
5278;DHT22;2662;51.194;6.614;2023-06-14T08:50:08;31.40;39.00
5278;DHT22;2662;51.194;6.614;2023-06-14T08:52:40;31.20;41.10
5278;DHT22;2662;51.194;6.614;2023-06-14T08:55:11;32.10;41.20
5278;DHT22;2662;51.194;6.614;2023-06-14T08:57:39;31.60;40.10
5278;DHT22;2662;51.194;6.614;2023-06-14T09:00:07;30.70;41.10
5278;DHT22;2662;51.194;6.614;2023-06-14T09:02:37;31.20;41.90
5278;DHT22;2662;51.194;6.614;2023-06-14T09:05:10;30.70;41.90
5278;DHT22;2662;51.194;6.614;2023-06-14T09:07:39;31.10;42.30
5278;DHT22;2662;51.194;6.614;2023-06-14T09:10:08;31.50;42.50
5278;DHT22;2662;51.194;6.614;2023-06-14T09:12:36;31.40;42.10
5278;DHT22;2662;51.194;6.614;2023-06-14T09:15:03;30.70;42.40
5278;DHT22;2662;51.194;6.614;2023-06-14T09:17:32;30.60;44.10
5278;DHT22;2662;51.194;6.614;2023-06-14T09:20:00;29.80;42.70
5278;DHT22;2662;51.194;6.614;2023-06-14T09:22:32;29.30;44.20
5278;DHT22;2662;51.194;6.614;2023-06-14T09:24:59;29.50;44.40
5278;DHT22;2662;51.194;6.614;2023-06-14T09:27:26;28.90;44.50
5278;DHT22;2662;51.194;6.614;2023-06-14T09:29:53;29.80;45.60
5278;DHT22;2662;51.194;6.614;2023-06-14T09:32:20;29.50;45.50
5278;DHT22;2662;51.194;6.614;2023-06-14T09:34:47;30.00;46.70
5278;DHT22;2662;51.194;6.614;2023-06-14T09:37:26;29.90;45.90
5278;DHT22;2662;51.194;6.614;2023-06-14T09:39:54;29.10;46.10
5278;DHT22;2662;51.194;6.614;2023-06-14T09:42:21;28.90;47.60
5278;DHT22;2662;51.194;6.614;2023-06-14T09:44:49;28.90;47.70
5278;DHT22;2662;51.194;6.614;2023-06-14T09:47:16;28.70;48.10
5278;DHT22;2662;51.194;6.614;2023-06-14T09:49:43;29.20;47.90
5278;DHT22;2662;51.194;6.614;2023-06-14T09:52:12;29.20;47.20
5278;DHT22;2662;51.194;6.614;2023-06-14T09:54:41;28.90;47.10
5278;DHT22;2662;51.194;6.614;2023-06-14T09:57:10;29.00;46.70
5278;DHT22;2662;51.194;6.614;2023-06-14T09:59:41;28.60;48.20
5278;DHT22;2662;51.194;6.614;2023-06-14T10:02:14;27.70;47.00
5278;DHT22;2662;51.194;6.614;2023-06-14T10:04:50;27.00;48.40
5278;DHT22;2662;51.194;6.614;2023-06-14T10:07:20;27.00;48.00
5278;DHT22;2662;51.194;6.614;2023-06-14T10:09:49;27.60;47.80
5278;DHT22;2662;51.194;6.614;2023-06-14T10:12:18;27.90;47.90
5278;DHT22;2662;51.194;6.614;2023-06-14T10:14:49;28.40;47.10
5278;DHT22;2662;51.194;6.614;2023-06-14T10:17:22;28.60;47.90
5278;DHT22;2662;51.194;6.614;2023-06-14T10:19:54;29.10;47.30
5278;DHT22;2662;51.194;6.614;2023-06-14T10:22:29;29.00;46.80
5278;DHT22;2662;51.194;6.614;2023-06-14T10:24:57;29.40;46.40
5278;DHT22;2662;51.194;6.614;2023-06-14T10:27:25;28.50;46.30
5278;DHT22;2662;51.194;6.614;2023-06-14T10:30:06;28.00;47.10
5278;DHT22;2662;51.194;6.614;2023-06-14T10:32:33;27.70;48.00
5278;DHT22;2662;51.194;6.614;2023-06-14T10:35:01;27.40;48.60
5278;DHT22;2662;51.194;6.614;2023-06-14T10:37:30;27.10;49.20
5278;DHT22;2662;51.194;6.614;2023-06-14T10:39:57;27.70;48.90
5278;DHT22;2662;51.194;6.614;2023-06-14T10:42:31;27.80;49.40
5278;DHT22;2662;51.194;6.614;2023-06-14T10:44:58;27.30;49.60
5278;DHT22;2662;51.194;6.614;2023-06-14T10:47:29;27.30;49.30
5278;DHT22;2662;51.194;6.614;2023-06-14T10:50:02;27.50;49.00
5278;DHT22;2662;51.194;6.614;2023-06-14T10:52:34;27.50;49.00
5278;DHT22;2662;51.194;6.614;2023-06-14T10:55:07;28.00;49.20
5278;DHT22;2662;51.194;6.614;2023-06-14T10:57:38;27.50;47.90
5278;DHT22;2662;51.194;6.614;2023-06-14T11:00:07;27.00;48.60
5278;DHT22;2662;51.194;6.614;2023-06-14T11:02:51;26.90;49.00
5278;DHT22;2662;51.194;6.614;2023-06-14T11:05:24;26.50;50.50
5278;DHT22;2662;51.194;6.614;2023-06-14T11:08:03;26.90;50.20
5278;DHT22;2662;51.194;6.614;2023-06-14T11:10:38;26.60;51.20
5278;DHT22;2662;51.194;6.614;2023-06-14T11:13:06;26.50;49.60
5278;DHT22;2662;51.194;6.614;2023-06-14T11:15:35;26.30;49.60
5278;DHT22;2662;51.194;6.614;2023-06-14T11:18:03;25.90;50.00
5278;DHT22;2662;51.194;6.614;2023-06-14T11:20:31;25.80;51.30
5278;DHT22;2662;51.194;6.614;2023-06-14T11:22:58;25.80;51.70
5278;DHT22;2662;51.194;6.614;2023-06-14T11:25:26;25.90;50.80
5278;DHT22;2662;51.194;6.614;2023-06-14T11:27:53;26.20;51.70
5278;DHT22;2662;51.194;6.614;2023-06-14T11:30:22;26.00;50.70
5278;DHT22;2662;51.194;6.614;2023-06-14T11:32:49;25.90;50.30
5278;DHT22;2662;51.194;6.614;2023-06-14T11:35:18;26.10;51.00
5278;DHT22;2662;51.194;6.614;2023-06-14T11:37:45;26.20;50.80
5278;DHT22;2662;51.194;6.614;2023-06-14T11:40:13;26.20;51.80
5278;DHT22;2662;51.194;6.614;2023-06-14T11:42:40;26.50;54.70
5278;DHT22;2662;51.194;6.614;2023-06-14T11:45:08;26.10;51.50
5278;DHT22;2662;51.194;6.614;2023-06-14T11:47:37;25.70;52.60
5278;DHT22;2662;51.194;6.614;2023-06-14T11:50:06;25.70;52.00
5278;DHT22;2662;51.194;6.614;2023-06-14T11:52:34;25.80;52.20
5278;DHT22;2662;51.194;6.614;2023-06-14T11:55:01;25.60;53.70
5278;DHT22;2662;51.194;6.614;2023-06-14T11:57:30;25.30;53.20
5278;DHT22;2662;51.194;6.614;2023-06-14T11:59:57;25.30;53.50
5278;DHT22;2662;51.194;6.614;2023-06-14T12:02:24;25.60;54.30
5278;DHT22;2662;51.194;6.614;2023-06-14T12:04:54;25.60;54.00
5278;DHT22;2662;51.194;6.614;2023-06-14T12:07:22;25.50;54.70
5278;DHT22;2662;51.194;6.614;2023-06-14T12:10:05;25.60;54.90
5278;DHT22;2662;51.194;6.614;2023-06-14T12:12:36;26.00;55.80
5278;DHT22;2662;51.194;6.614;2023-06-14T12:15:03;26.40;55.30
5278;DHT22;2662;51.194;6.614;2023-06-14T12:17:32;26.50;54.20
5278;DHT22;2662;51.194;6.614;2023-06-14T12:20:05;26.50;53.80
5278;DHT22;2662;51.194;6.614;2023-06-14T12:22:35;26.30;53.20
5278;DHT22;2662;51.194;6.614;2023-06-14T12:25:02;26.10;54.50
5278;DHT22;2662;51.194;6.614;2023-06-14T12:27:29;26.10;53.90
5278;DHT22;2662;51.194;6.614;2023-06-14T12:30:00;26.30;54.30
5278;DHT22;2662;51.194;6.614;2023-06-14T12:32:27;26.20;54.20
5278;DHT22;2662;51.194;6.614;2023-06-14T12:34:54;26.30;55.00
5278;DHT22;2662;51.194;6.614;2023-06-14T12:37:22;26.70;55.60
5278;DHT22;2662;51.194;6.614;2023-06-14T12:39:49;27.00;53.70
5278;DHT22;2662;51.194;6.614;2023-06-14T12:42:16;27.00;54.20
5278;DHT22;2662;51.194;6.614;2023-06-14T12:44:43;26.60;53.60
5278;DHT22;2662;51.194;6.614;2023-06-14T12:47:10;26.80;54.00
5278;DHT22;2662;51.194;6.614;2023-06-14T12:49:38;26.90;54.50
5278;DHT22;2662;51.194;6.614;2023-06-14T12:52:06;26.30;53.90
5278;DHT22;2662;51.194;6.614;2023-06-14T12:54:34;26.50;53.90
5278;DHT22;2662;51.194;6.614;2023-06-14T12:57:01;26.60;54.00
5278;DHT22;2662;51.194;6.614;2023-06-14T12:59:28;26.50;53.40
5278;DHT22;2662;51.194;6.614;2023-06-14T13:01:59;26.50;54.30
5278;DHT22;2662;51.194;6.614;2023-06-14T13:04:26;26.60;54.90
5278;DHT22;2662;51.194;6.614;2023-06-14T13:06:53;26.80;53.50
5278;DHT22;2662;51.194;6.614;2023-06-14T13:09:19;27.00;54.20
5278;DHT22;2662;51.194;6.614;2023-06-14T13:11:47;26.90;54.70
5278;DHT22;2662;51.194;6.614;2023-06-14T13:14:14;26.80;55.70
5278;DHT22;2662;51.194;6.614;2023-06-14T13:16:41;26.90;54.70
5278;DHT22;2662;51.194;6.614;2023-06-14T13:19:08;27.10;56.90
5278;DHT22;2662;51.194;6.614;2023-06-14T13:21:35;27.30;53.70
5278;DHT22;2662;51.194;6.614;2023-06-14T13:24:01;27.20;53.90
5278;DHT22;2662;51.194;6.614;2023-06-14T13:26:28;27.20;54.00
5278;DHT22;2662;51.194;6.614;2023-06-14T13:28:56;27.20;53.50
5278;DHT22;2662;51.194;6.614;2023-06-14T13:31:23;27.20;54.20
5278;DHT22;2662;51.194;6.614;2023-06-14T13:33:50;26.50;54.00
5278;DHT22;2662;51.194;6.614;2023-06-14T13:36:17;26.50;55.10
5278;DHT22;2662;51.194;6.614;2023-06-14T13:38:43;26.50;54.70
5278;DHT22;2662;51.194;6.614;2023-06-14T13:41:10;26.60;55.30
5278;DHT22;2662;51.194;6.614;2023-06-14T13:43:37;26.80;55.40
5278;DHT22;2662;51.194;6.614;2023-06-14T13:46:05;27.10;55.00
5278;DHT22;2662;51.194;6.614;2023-06-14T13:48:32;27.00;54.40
5278;DHT22;2662;51.194;6.614;2023-06-14T13:50:59;26.80;54.60
5278;DHT22;2662;51.194;6.614;2023-06-14T13:53:26;27.00;55.40
5278;DHT22;2662;51.194;6.614;2023-06-14T13:55:53;27.10;54.80
5278;DHT22;2662;51.194;6.614;2023-06-14T13:58:19;27.00;55.50
5278;DHT22;2662;51.194;6.614;2023-06-14T14:00:46;26.80;55.30
5278;DHT22;2662;51.194;6.614;2023-06-14T14:03:14;26.80;56.20
5278;DHT22;2662;51.194;6.614;2023-06-14T14:05:41;27.00;56.70
5278;DHT22;2662;51.194;6.614;2023-06-14T14:08:08;27.10;55.90
5278;DHT22;2662;51.194;6.614;2023-06-14T14:10:35;27.20;57.10
5278;DHT22;2662;51.194;6.614;2023-06-14T14:13:02;27.00;56.70
5278;DHT22;2662;51.194;6.614;2023-06-14T14:15:28;27.00;55.00
5278;DHT22;2662;51.194;6.614;2023-06-14T14:17:55;27.10;56.20
5278;DHT22;2662;51.194;6.614;2023-06-14T14:20:24;27.00;56.00
5278;DHT22;2662;51.194;6.614;2023-06-14T14:22:51;26.70;57.10
5278;DHT22;2662;51.194;6.614;2023-06-14T14:25:17;26.50;56.40
5278;DHT22;2662;51.194;6.614;2023-06-14T14:27:44;26.30;56.20
5278;DHT22;2662;51.194;6.614;2023-06-14T14:30:11;26.40;57.10
5278;DHT22;2662;51.194;6.614;2023-06-14T14:32:39;26.60;56.60
5278;DHT22;2662;51.194;6.614;2023-06-14T14:35:07;26.50;57.20
5278;DHT22;2662;51.194;6.614;2023-06-14T14:37:35;26.70;57.50
5278;DHT22;2662;51.194;6.614;2023-06-14T14:40:02;26.60;56.60
5278;DHT22;2662;51.194;6.614;2023-06-14T14:42:29;26.60;56.40
5278;DHT22;2662;51.194;6.614;2023-06-14T14:44:56;26.90;55.90
5278;DHT22;2662;51.194;6.614;2023-06-14T14:47:22;27.20;56.20
5278;DHT22;2662;51.194;6.614;2023-06-14T14:49:49;27.40;55.30
5278;DHT22;2662;51.194;6.614;2023-06-14T14:52:16;27.10;55.70
5278;DHT22;2662;51.194;6.614;2023-06-14T14:54:44;27.30;56.50
5278;DHT22;2662;51.194;6.614;2023-06-14T14:57:11;26.90;56.30
5278;DHT22;2662;51.194;6.614;2023-06-14T14:59:38;26.50;56.00
5278;DHT22;2662;51.194;6.614;2023-06-14T15:02:05;26.40;56.20
5278;DHT22;2662;51.194;6.614;2023-06-14T15:04:32;26.40;56.70
5278;DHT22;2662;51.194;6.614;2023-06-14T15:06:58;26.40;56.20
5278;DHT22;2662;51.194;6.614;2023-06-14T15:09:25;26.20;56.60
5278;DHT22;2662;51.194;6.614;2023-06-14T15:11:53;26.30;58.10
5278;DHT22;2662;51.194;6.614;2023-06-14T15:14:20;26.20;56.60
5278;DHT22;2662;51.194;6.614;2023-06-14T15:16:46;26.30;56.90
5278;DHT22;2662;51.194;6.614;2023-06-14T15:19:13;26.30;56.80
5278;DHT22;2662;51.194;6.614;2023-06-14T15:21:40;26.40;57.00
5278;DHT22;2662;51.194;6.614;2023-06-14T15:24:07;26.60;57.70
5278;DHT22;2662;51.194;6.614;2023-06-14T15:26:34;26.80;57.10
5278;DHT22;2662;51.194;6.614;2023-06-14T15:29:02;26.90;55.90
5278;DHT22;2662;51.194;6.614;2023-06-14T15:31:28;27.00;56.60
5278;DHT22;2662;51.194;6.614;2023-06-14T15:33:55;27.00;57.00
5278;DHT22;2662;51.194;6.614;2023-06-14T15:36:22;26.80;56.40
5278;DHT22;2662;51.194;6.614;2023-06-14T15:38:49;26.70;55.60
5278;DHT22;2662;51.194;6.614;2023-06-14T15:41:15;26.40;56.20
5278;DHT22;2662;51.194;6.614;2023-06-14T15:43:42;26.40;56.90
5278;DHT22;2662;51.194;6.614;2023-06-14T15:46:10;26.40;57.30
5278;DHT22;2662;51.194;6.614;2023-06-14T15:48:37;26.40;56.60
5278;DHT22;2662;51.194;6.614;2023-06-14T15:51:03;25.90;56.50
5278;DHT22;2662;51.194;6.614;2023-06-14T15:53:30;25.90;57.40
5278;DHT22;2662;51.194;6.614;2023-06-14T15:55:57;25.60;57.10
5278;DHT22;2662;51.194;6.614;2023-06-14T15:58:24;25.80;57.90
5278;DHT22;2662;51.194;6.614;2023-06-14T16:00:50;26.00;58.40
5278;DHT22;2662;51.194;6.614;2023-06-14T16:03:18;26.00;58.30
5278;DHT22;2662;51.194;6.614;2023-06-14T16:05:45;25.90;57.40